Kenora, Ontario

4:11 PM CDT on July 28, 2016 (GMT -0500)
Kenora | | Change Station

Elev 1342 ft 49.79 °N, 94.36 °W | Updated 11 minutes ago

Partly Cloudy
Partly Cloudy
72 °F
Feels Like 72 °F
N
2
Wind Variable Wind from Variable

Today
High -- | Low -- °F
--% Chance of Precip.
Yesterday
High -- | Low -- °F
Precip. -- in
Pressure 30.14 in
Visibility 15.0 miles
Clouds Few 4800 ft
Dew Point 50 °F
Humidity 46%
Rainfall 0.00 in
Snow Depth Not available.
5:42 AM 9:04 PM
Waning Crescent, 29% visible
METAR CYQK 282100Z VRB02KT 15SM FEW048 22/10 A3012 RMK CU2 SLP205 DENSITY ALT 2200FT
Pressure 30.14 in
Visibility 15.0 miles
Clouds Few 4800 ft
Dew Point 50 °F
Humidity 46%
Rainfall 0.00 in
Snow Depth Not available.
5:42 AM 9:04 PM
Waning Crescent, 29% visible
METAR CYQK 282100Z VRB02KT 15SM FEW048 22/10 A3012 RMK CU2 SLP205 DENSITY ALT 2200FT

10-Day Weather Forecast

No radar image for this location.
×

Almanac

Astronomy

Jul. 28, 2016 Rise Set
Actual Time
Civil Twilight
Nautical Twilight
Astronomical Twilight
Moon
Length of Visible Light
Length of Day
Tomorrow will be .
, % of the Moon is Illuminated

Today's Extremes

Country Highs Country Lows

Community

WunderPhotos

Upload Photos

1,928,224 photos uploaded!

WunderBlog® & News

Nearby

Air Quality

  Air Quality AQ Index Pollutant
Not available.

Snow Depth

Station Depth Elevation

Earthquake Activity

City Distance Mag. Time & Date
Minimum magnitude displayed is 2.5.

Coastal Water Temperatures

Place Temperature

Stations

Nearby Weather Stations

Station Location Temp. Windchill Dew Point Humidity Wind Precip. Elev Updated Type
                   

Watches & Warnings

There are currently no watches in effect.